createdAt,value
2018-06-27T00:01:02.133Z,19.40
2018-06-27T00:03:32.783Z,19.40
2018-06-27T00:06:03.276Z,19.40
2018-06-27T00:08:33.971Z,19.40
2018-06-27T00:11:04.667Z,19.40
2018-06-27T00:13:35.144Z,19.30
2018-06-27T00:16:06.277Z,19.30
2018-06-27T00:18:37.093Z,19.20
2018-06-27T00:21:07.817Z,19.20
2018-06-27T00:23:38.376Z,19.20
2018-06-27T00:26:08.960Z,19.20
2018-06-27T00:28:39.702Z,19.20
2018-06-27T00:31:10.489Z,19.20
2018-06-27T00:33:40.956Z,19.20
2018-06-27T00:36:11.698Z,19.20
2018-06-27T00:38:42.364Z,19.20
2018-06-27T00:41:13.266Z,19.20
2018-06-27T00:46:13.831Z,19.20
2018-06-27T00:48:44.245Z,19.20
2018-06-27T00:51:14.957Z,19.20
2018-06-27T00:53:50.557Z,19.20
2018-06-27T00:56:21.202Z,19.20
2018-06-27T00:58:52.004Z,19.20
2018-06-27T01:01:22.615Z,19.20
2018-06-27T01:03:53.114Z,19.20
2018-06-27T01:06:23.691Z,19.20
2018-06-27T01:11:24.571Z,19.30
2018-06-27T01:13:55.108Z,19.30
2018-06-27T01:16:25.884Z,19.20
2018-06-27T01:18:56.349Z,19.20
2018-06-27T01:21:26.988Z,19.20
2018-06-27T01:26:27.557Z,19.30
2018-06-27T01:28:58.001Z,19.20
2018-06-27T01:36:28.885Z,19.20
2018-06-27T01:41:29.201Z,19.20
2018-06-27T01:43:59.985Z,19.20
2018-06-27T01:49:00.375Z,19.20
2018-06-27T01:54:00.752Z,19.20
2018-06-27T01:56:31.221Z,19.30
2018-06-27T01:59:01.938Z,19.30
2018-06-27T02:01:32.879Z,19.40
2018-06-27T02:06:34.061Z,19.40
2018-06-27T02:09:06.838Z,19.40
2018-06-27T02:11:37.678Z,19.30
2018-06-27T02:14:08.891Z,19.30
2018-06-27T02:16:39.505Z,19.30
2018-06-27T02:19:10.059Z,19.30
2018-06-27T02:21:40.624Z,19.20
2018-06-27T02:24:11.962Z,19.20
2018-06-27T02:26:42.577Z,19.20
2018-06-27T02:29:13.200Z,19.30
2018-06-27T02:31:43.777Z,19.30
2018-06-27T02:34:14.979Z,19.30
2018-06-27T02:36:45.475Z,19.20
2018-06-27T02:39:16.393Z,19.20
2018-06-27T02:44:16.672Z,19.30
2018-06-27T02:46:48.089Z,19.20
2018-06-27T02:49:18.610Z,19.20
2018-06-27T02:51:49.389Z,19.20
2018-06-27T02:54:20.121Z,19.20
2018-06-27T02:56:50.708Z,19.20
2018-06-27T03:01:51.155Z,19.30
2018-06-27T03:04:21.969Z,19.30
2018-06-27T03:06:52.566Z,19.40
2018-06-27T03:09:23.127Z,19.40
2018-06-27T03:11:53.820Z,19.40
2018-06-27T03:14:24.450Z,19.40
2018-06-27T03:16:55.394Z,19.40
2018-06-27T03:19:25.831Z,19.40
2018-06-27T03:21:56.411Z,19.50
2018-06-27T03:26:58.413Z,19.50
2018-06-27T03:29:29.139Z,19.60
2018-06-27T03:31:59.689Z,19.60
2018-06-27T03:34:30.358Z,19.60
2018-06-27T03:37:00.891Z,19.70
2018-06-27T03:39:31.306Z,19.70
2018-06-27T03:42:01.878Z,19.70
2018-06-27T03:47:02.600Z,19.70
2018-06-27T03:52:02.761Z,19.70
2018-06-27T03:54:33.228Z,19.70
2018-06-27T03:57:03.897Z,19.70
2018-06-27T03:59:34.527Z,19.70
2018-06-27T04:02:05.424Z,19.60
2018-06-27T04:04:35.913Z,19.60
2018-06-27T04:07:06.406Z,19.60
2018-06-27T04:09:36.887Z,19.50
2018-06-27T04:12:07.408Z,19.60
2018-06-27T04:14:37.882Z,19.60
2018-06-27T04:17:08.413Z,19.60
2018-06-27T04:19:39.327Z,19.60
2018-06-27T04:22:09.924Z,19.60
2018-06-27T04:24:41.170Z,19.60
2018-06-27T04:27:11.847Z,19.80
2018-06-27T04:29:42.290Z,19.80
2018-06-27T04:32:13.074Z,19.80
2018-06-27T04:37:13.718Z,19.80
2018-06-27T04:39:44.290Z,19.80
2018-06-27T04:42:14.845Z,19.80
2018-06-27T04:44:45.646Z,19.80
2018-06-27T04:49:46.356Z,19.90
2018-06-27T04:52:16.880Z,19.90
2018-06-27T04:54:47.374Z,19.90
2018-06-27T04:57:19.017Z,20.00
2018-06-27T04:59:49.906Z,20.00
2018-06-27T05:02:20.421Z,20.00
2018-06-27T05:04:51.140Z,20.00
2018-06-27T05:07:21.737Z,20.00
2018-06-27T05:09:52.414Z,20.10
2018-06-27T05:12:23.050Z,20.10
2018-06-27T05:14:53.596Z,20.10
2018-06-27T05:17:24.155Z,20.20
2018-06-27T05:19:54.935Z,20.20
2018-06-27T05:22:26.413Z,20.30
2018-06-27T05:24:57.340Z,20.40
2018-06-27T05:27:28.122Z,20.40
2018-06-27T05:29:58.721Z,20.50
2018-06-27T05:34:59.151Z,20.70
2018-06-27T05:37:29.833Z,20.80
2018-06-27T05:40:00.381Z,20.90
2018-06-27T05:42:30.796Z,21.00
2018-06-27T05:45:01.548Z,21.00
2018-06-27T05:47:32.164Z,21.10
2018-06-27T05:52:32.562Z,21.20
2018-06-27T05:55:07.982Z,21.20
2018-06-27T05:57:40.013Z,21.30
2018-06-27T06:00:12.816Z,21.30
2018-06-27T06:02:43.688Z,21.40
2018-06-27T06:05:14.489Z,21.50
2018-06-27T06:07:45.025Z,21.60
2018-06-27T06:10:15.852Z,21.70
2018-06-27T06:12:46.330Z,21.80
2018-06-27T06:15:17.005Z,21.80
2018-06-27T06:17:47.665Z,21.90
2018-06-27T06:20:18.381Z,22.00
2018-06-27T06:22:48.831Z,22.00
2018-06-27T06:25:19.672Z,22.00
2018-06-27T06:27:50.206Z,21.90
2018-06-27T06:30:20.730Z,22.00
2018-06-27T06:32:51.184Z,22.10
2018-06-27T06:35:21.773Z,22.40
2018-06-27T06:37:52.333Z,22.80
2018-06-27T06:40:23.096Z,23.20
2018-06-27T06:42:53.578Z,23.50
2018-06-27T06:45:24.197Z,23.80
2018-06-27T06:47:55.292Z,23.80
2018-06-27T06:52:56.062Z,23.70
2018-06-27T06:55:26.581Z,23.60
2018-06-27T06:57:57.197Z,23.50
2018-06-27T07:00:27.720Z,23.40
2018-06-27T07:05:27.951Z,23.40
2018-06-27T07:10:29.218Z,23.50
2018-06-27T07:15:29.437Z,23.60
2018-06-27T07:17:59.872Z,23.60
2018-06-27T07:25:29.997Z,23.80
2018-06-27T07:28:00.519Z,23.80
2018-06-27T07:30:31.761Z,23.70
2018-06-27T07:35:32.298Z,23.50
2018-06-27T07:38:02.922Z,23.50
2018-06-27T07:40:36.318Z,23.40
2018-06-27T07:43:06.885Z,23.50
2018-06-27T07:45:37.598Z,23.50
2018-06-27T07:48:08.117Z,23.60
2018-06-27T07:50:38.611Z,23.80
2018-06-27T07:53:10.172Z,24.20
2018-06-27T07:55:40.727Z,24.30
2018-06-27T07:58:11.461Z,24.20
2018-06-27T08:00:42.274Z,24.20
2018-06-27T08:03:12.938Z,24.10
2018-06-27T08:05:43.798Z,24.10
2018-06-27T08:21:14.726Z,24.30
2018-06-27T08:23:45.644Z,24.80
2018-06-27T08:26:16.424Z,24.80
2018-06-27T08:28:47.059Z,24.80
2018-06-27T08:31:17.771Z,24.90
2018-06-27T08:33:48.661Z,25.20
2018-06-27T08:36:19.137Z,25.30
2018-06-27T08:38:49.798Z,25.30
2018-06-27T08:41:20.444Z,25.30
2018-06-27T08:43:51.316Z,25.30
2018-06-27T08:46:22.186Z,25.30
2018-06-27T08:48:52.780Z,25.30
2018-06-27T08:51:23.788Z,25.30
2018-06-27T08:56:24.979Z,25.30
2018-06-27T08:58:55.899Z,25.30
2018-06-27T09:01:26.457Z,25.40
2018-06-27T09:03:57.229Z,25.40
2018-06-27T09:06:27.888Z,25.40
2018-06-27T09:08:58.426Z,25.40
2018-06-27T09:11:29.101Z,25.40
2018-06-27T09:13:59.802Z,25.50
2018-06-27T09:16:30.389Z,25.60
2018-06-27T09:19:01.097Z,25.70
2018-06-27T09:34:32.108Z,25.70
2018-06-27T09:37:03.141Z,25.80
2018-06-27T09:39:33.859Z,25.90
2018-06-27T09:42:04.361Z,25.90
2018-06-27T09:44:35.130Z,26.30
2018-06-27T09:47:05.902Z,26.20
2018-06-27T09:49:36.429Z,26.30
2018-06-27T09:52:07.039Z,26.40
2018-06-27T09:54:40.586Z,26.80
2018-06-27T09:57:13.174Z,26.90
2018-06-27T09:59:44.115Z,27.10
2018-06-27T10:02:14.709Z,26.80
2018-06-27T10:04:45.640Z,26.60
2018-06-27T10:07:16.358Z,26.80
2018-06-27T10:09:47.198Z,27.10
2018-06-27T10:12:18.025Z,27.20
2018-06-27T10:14:48.956Z,27.50
2018-06-27T10:17:19.666Z,27.80
2018-06-27T10:19:50.457Z,28.00
2018-06-27T10:24:50.766Z,27.80
2018-06-27T10:27:21.918Z,27.80
2018-06-27T10:29:53.098Z,28.20
2018-06-27T10:32:23.817Z,28.20
2018-06-27T10:34:54.353Z,28.10
2018-06-27T10:37:25.217Z,28.00
2018-06-27T10:39:55.716Z,28.00
2018-06-27T10:42:26.586Z,27.90
2018-06-27T10:44:57.089Z,27.70
2018-06-27T10:47:27.990Z,27.70
2018-06-27T10:49:58.482Z,27.70
2018-06-27T10:52:29.023Z,27.60
2018-06-27T10:55:00.400Z,27.40
2018-06-27T10:57:31.023Z,27.40
2018-06-27T11:00:01.557Z,27.50
2018-06-27T11:02:32.382Z,27.50
2018-06-27T11:05:03.114Z,27.50
2018-06-27T11:20:33.730Z,27.40
2018-06-27T11:23:04.369Z,27.40
2018-06-27T11:25:35.098Z,27.30
2018-06-27T11:28:05.676Z,27.30
2018-06-27T11:30:36.271Z,27.30
2018-06-27T11:33:06.893Z,27.20
2018-06-27T11:35:37.414Z,27.10
2018-06-27T11:38:07.913Z,27.10
2018-06-27T11:40:38.927Z,27.10
2018-06-27T11:43:09.522Z,27.10
2018-06-27T11:45:40.107Z,27.10
2018-06-27T11:48:10.998Z,27.10
2018-06-27T11:50:41.619Z,27.10
2018-06-27T11:53:12.193Z,27.10
2018-06-27T11:55:43.205Z,27.10
2018-06-27T11:58:13.824Z,27.10
2018-06-27T12:00:44.409Z,27.30
2018-06-27T12:03:15.232Z,27.40
2018-06-27T12:05:45.604Z,27.40
2018-06-27T12:08:16.185Z,27.30
2018-06-27T12:10:47.181Z,27.40
2018-06-27T12:13:17.679Z,27.30
2018-06-27T12:15:48.185Z,27.50
2018-06-27T12:18:18.693Z,28.00
2018-06-27T12:20:49.293Z,28.30
2018-06-27T12:23:19.888Z,28.50
2018-06-27T12:25:50.562Z,28.40
2018-06-27T12:28:21.239Z,28.30
2018-06-27T12:30:51.742Z,28.30
2018-06-27T12:33:22.300Z,28.50
2018-06-27T12:35:52.655Z,28.70
2018-06-27T12:38:23.660Z,28.90
2018-06-27T12:40:54.254Z,29.20
2018-06-27T12:48:24.809Z,29.90
2018-06-27T12:50:55.672Z,30.10
2018-06-27T12:53:26.389Z,30.40
2018-06-27T12:55:56.905Z,30.70
2018-06-27T12:58:27.654Z,30.90
2018-06-27T13:00:58.085Z,31.00
2018-06-27T13:03:28.971Z,30.90
2018-06-27T13:08:29.566Z,31.10
2018-06-27T13:13:29.901Z,31.30
2018-06-27T13:18:30.466Z,31.80
2018-06-27T13:21:01.019Z,31.70
2018-06-27T13:23:31.489Z,31.50
2018-06-27T13:31:01.997Z,30.80
2018-06-27T13:33:32.690Z,30.60
2018-06-27T13:36:03.274Z,31.00
2018-06-27T13:38:33.921Z,31.00
2018-06-27T13:41:04.699Z,31.40
2018-06-27T13:43:35.789Z,31.80
2018-06-27T13:46:06.470Z,31.60
2018-06-27T13:48:37.038Z,31.70
2018-06-27T13:51:07.921Z,31.70
2018-06-27T13:53:38.515Z,31.70
2018-06-27T14:01:08.672Z,31.90
2018-06-27T14:03:39.278Z,31.80
2018-06-27T14:06:09.866Z,31.90
2018-06-27T14:08:40.428Z,31.70
2018-06-27T14:11:20.467Z,31.80
2018-06-27T14:13:52.253Z,31.50
2018-06-27T14:16:22.875Z,31.40
2018-06-27T14:18:53.494Z,31.70
2018-06-27T14:21:24.179Z,31.60
2018-06-27T14:23:54.778Z,31.80
2018-06-27T14:26:25.320Z,31.80
2018-06-27T14:28:56.119Z,32.00
2018-06-27T14:31:26.595Z,31.70
2018-06-27T14:33:57.220Z,31.90
2018-06-27T14:36:27.786Z,32.00
2018-06-27T14:38:58.213Z,31.70
2018-06-27T14:41:28.747Z,31.70
2018-06-27T14:43:59.211Z,31.70
2018-06-27T14:46:29.961Z,31.50
2018-06-27T14:49:00.569Z,31.50
2018-06-27T14:54:01.202Z,31.20
2018-06-27T14:56:31.793Z,31.10
2018-06-27T14:59:02.402Z,31.10
2018-06-27T15:04:03.061Z,30.80
2018-06-27T15:06:33.644Z,31.00
2018-06-27T15:09:04.377Z,30.50
2018-06-27T15:11:34.989Z,30.20
2018-06-27T15:14:05.657Z,29.80
2018-06-27T15:16:36.588Z,29.60
2018-06-27T15:19:07.105Z,29.50
2018-06-27T15:21:37.939Z,29.50
2018-06-27T15:24:08.794Z,29.60
2018-06-27T15:26:39.363Z,29.70
2018-06-27T15:29:10.415Z,29.60
2018-06-27T15:31:40.883Z,29.70
2018-06-27T15:36:41.517Z,29.70
2018-06-27T15:39:12.268Z,29.60
2018-06-27T15:41:43.095Z,29.50
2018-06-27T15:44:13.845Z,29.50
2018-06-27T15:46:44.294Z,29.50
2018-06-27T15:49:15.245Z,29.60
2018-06-27T15:51:45.852Z,29.50
2018-06-27T15:54:16.649Z,29.40
2018-06-27T15:56:47.405Z,29.20
2018-06-27T15:59:17.953Z,28.90
2018-06-27T16:01:48.502Z,28.60
2018-06-27T16:04:18.981Z,28.60
2018-06-27T16:06:49.549Z,28.40
2018-06-27T16:09:19.935Z,28.60
2018-06-27T16:11:50.570Z,28.40
2018-06-27T16:14:21.356Z,28.30
2018-06-27T16:16:51.911Z,28.20
2018-06-27T16:19:22.376Z,28.30
2018-06-27T16:21:53.005Z,28.40
2018-06-27T16:26:53.285Z,28.10
2018-06-27T16:29:23.976Z,28.00
2018-06-27T16:31:55.005Z,28.00
2018-06-27T16:34:25.517Z,28.00
2018-06-27T16:39:25.825Z,27.60
2018-06-27T16:41:56.543Z,27.20
2018-06-27T16:44:27.075Z,27.10
2018-06-27T16:46:57.634Z,26.90
2018-06-27T16:49:28.156Z,26.80
2018-06-27T16:51:58.976Z,26.60
2018-06-27T16:54:29.523Z,26.50
2018-06-27T16:57:00.387Z,26.40
2018-06-27T17:02:00.834Z,26.30
2018-06-27T17:04:31.341Z,26.20
2018-06-27T17:07:01.808Z,26.00
2018-06-27T17:09:32.552Z,25.90
2018-06-27T17:12:03.085Z,25.80
2018-06-27T17:17:03.274Z,25.70
2018-06-27T17:19:33.843Z,25.60
2018-06-27T17:22:04.721Z,25.50
2018-06-27T17:24:35.520Z,25.50
2018-06-27T17:27:06.282Z,25.50
2018-06-27T17:29:36.673Z,25.30
2018-06-27T17:32:07.270Z,25.20
2018-06-27T17:34:38.353Z,25.20
2018-06-27T17:37:09.441Z,25.20
2018-06-27T17:39:40.995Z,25.20
2018-06-27T17:42:11.687Z,25.10
2018-06-27T17:44:42.253Z,25.10
2018-06-27T17:49:42.857Z,24.90
2018-06-27T17:52:13.404Z,24.80
2018-06-27T17:54:44.146Z,24.70
2018-06-27T17:57:14.962Z,24.60
2018-06-27T17:59:45.559Z,24.70
2018-06-27T18:02:16.119Z,24.60
2018-06-27T18:04:46.558Z,24.50
2018-06-27T18:07:16.954Z,24.50
2018-06-27T18:09:47.531Z,24.50
2018-06-27T18:14:47.943Z,24.40
2018-06-27T18:17:18.431Z,24.40
2018-06-27T18:19:49.372Z,24.40
2018-06-27T18:22:19.946Z,24.40
2018-06-27T18:24:50.993Z,24.30
2018-06-27T18:27:21.566Z,24.30
2018-06-27T18:29:52.361Z,24.30
2018-06-27T18:32:22.977Z,24.20
2018-06-27T18:34:53.640Z,24.20
2018-06-27T18:37:24.196Z,24.20
2018-06-27T18:39:54.609Z,24.10
2018-06-27T18:42:25.269Z,24.10
2018-06-27T18:44:56.045Z,24.10
2018-06-27T18:47:26.726Z,24.00
2018-06-27T18:49:57.134Z,24.00
2018-06-27T18:52:27.745Z,23.90
2018-06-27T18:54:58.795Z,23.80
2018-06-27T18:57:29.508Z,23.80
2018-06-27T19:00:00.131Z,23.70
2018-06-27T19:02:30.664Z,23.70
2018-06-27T19:05:01.062Z,23.70
2018-06-27T19:07:31.640Z,23.60
2018-06-27T19:10:02.353Z,23.50
2018-06-27T19:12:32.939Z,23.50
2018-06-27T19:15:03.757Z,23.50
2018-06-27T19:17:34.303Z,23.50
2018-06-27T19:20:05.502Z,23.40
2018-06-27T19:22:36.048Z,23.40
2018-06-27T19:25:06.712Z,23.40
2018-06-27T19:27:37.250Z,23.40
2018-06-27T19:32:38.059Z,23.40
2018-06-27T19:35:09.071Z,23.40
2018-06-27T19:37:39.728Z,23.50
2018-06-27T19:40:10.359Z,23.50
2018-06-27T19:42:41.466Z,23.40
2018-06-27T19:45:12.141Z,23.40
2018-06-27T19:47:42.597Z,23.40
2018-06-27T20:10:30.452Z,23.10
2018-06-27T20:13:01.366Z,21.50
2018-06-27T20:15:31.894Z,21.40
2018-06-27T20:18:02.461Z,20.90
2018-06-27T20:20:33.488Z,20.50
2018-06-27T20:23:04.307Z,20.30
2018-06-27T20:25:34.970Z,20.30
2018-06-27T20:28:05.504Z,20.20
2018-06-27T20:30:36.277Z,20.20
2018-06-27T20:33:06.778Z,20.20
2018-06-27T20:35:38.328Z,20.30
2018-06-27T20:38:09.108Z,20.50
2018-06-27T20:40:39.744Z,20.60
2018-06-27T20:43:10.406Z,20.70
2018-06-27T20:45:40.927Z,20.70
2018-06-27T20:48:11.579Z,20.80
2018-06-27T20:50:42.118Z,20.70
2018-06-27T20:53:12.697Z,20.70
2018-06-27T20:55:43.189Z,20.60
2018-06-27T20:58:13.716Z,20.50
2018-06-27T21:00:44.322Z,20.40
2018-06-27T21:03:14.949Z,20.30
2018-06-27T21:05:45.729Z,20.20
2018-06-27T21:08:16.200Z,20.20
2018-06-27T21:10:47.425Z,20.20
2018-06-27T21:13:17.856Z,20.10
2018-06-27T21:15:48.561Z,20.10
2018-06-27T21:18:19.128Z,20.00
2018-06-27T21:23:19.496Z,20.00
2018-06-27T21:25:50.100Z,20.00
2018-06-27T21:28:20.698Z,19.90
2018-06-27T21:30:51.131Z,19.90
2018-06-27T21:33:21.633Z,19.80
2018-06-27T21:38:22.123Z,19.70
2018-06-27T21:40:52.825Z,19.70
2018-06-27T21:45:53.495Z,19.70
2018-06-27T21:48:23.897Z,19.70
2018-06-27T21:50:54.441Z,19.70
2018-06-27T21:53:25.017Z,19.70
2018-06-27T21:55:55.433Z,19.70
2018-06-27T21:58:25.927Z,19.70
2018-06-27T22:01:02.778Z,19.70
2018-06-27T22:03:33.481Z,19.70
2018-06-27T22:06:04.114Z,19.70
2018-06-27T22:08:34.766Z,19.70
2018-06-27T22:11:05.388Z,19.70
2018-06-27T22:13:35.802Z,19.70
2018-06-27T22:16:06.498Z,19.70
2018-06-27T22:18:37.004Z,19.70
2018-06-27T22:23:37.226Z,19.80
2018-06-27T22:26:07.790Z,19.90
2018-06-27T22:28:38.267Z,19.90
2018-06-27T22:31:08.839Z,19.90
2018-06-27T22:33:39.770Z,19.80
2018-06-27T22:36:10.294Z,19.90
2018-06-27T22:38:40.961Z,19.90
2018-06-27T22:41:11.438Z,19.90
2018-06-27T22:43:42.007Z,20.00
2018-06-27T22:46:12.457Z,20.10
2018-06-27T22:48:43.006Z,20.00
2018-06-27T22:51:13.593Z,20.00
2018-06-27T22:53:44.633Z,20.00
2018-06-27T22:56:15.478Z,20.00
2018-06-27T22:58:46.076Z,19.90
2018-06-27T23:03:46.483Z,19.80
2018-06-27T23:08:46.882Z,19.70
2018-06-27T23:11:17.323Z,19.70
2018-06-27T23:16:17.838Z,19.70
2018-06-27T23:18:48.346Z,19.70
2018-06-27T23:21:18.962Z,19.60
2018-06-27T23:23:49.432Z,19.50
2018-06-27T23:26:19.832Z,19.50
2018-06-27T23:28:50.446Z,19.50
2018-06-27T23:31:20.896Z,19.50
2018-06-27T23:36:21.172Z,19.40
2018-06-27T23:38:51.653Z,19.40
2018-06-27T23:46:21.509Z,19.40
2018-06-27T23:51:21.980Z,19.40
2018-06-27T23:53:52.528Z,19.50
2018-06-27T23:56:23.569Z,19.40
2018-06-27T23:58:54.288Z,19.50
